sensor_id;sensor_type;location;lat;lon;timestamp;P1;durP1;ratioP1;P2;durP2;ratioP2
15216;SDS011;7711;46.634;14.318;2023-04-24T00:01:48;9.50;;;6.70;;
15216;SDS011;7711;46.634;14.318;2023-04-24T00:04:16;8.87;;;6.73;;
15216;SDS011;7711;46.634;14.318;2023-04-24T00:06:44;8.67;;;6.33;;
15216;SDS011;7711;46.634;14.318;2023-04-24T00:09:14;8.67;;;6.47;;
15216;SDS011;7711;46.634;14.318;2023-04-24T00:11:42;9.13;;;6.40;;
15216;SDS011;7711;46.634;14.318;2023-04-24T00:14:10;7.90;;;6.30;;
15216;SDS011;7711;46.634;14.318;2023-04-24T00:16:37;7.63;;;6.47;;
15216;SDS011;7711;46.634;14.318;2023-04-24T00:19:04;7.80;;;6.10;;
15216;SDS011;7711;46.634;14.318;2023-04-24T00:21:32;7.50;;;6.40;;
15216;SDS011;7711;46.634;14.318;2023-04-24T00:23:59;7.93;;;6.50;;
15216;SDS011;7711;46.634;14.318;2023-04-24T00:26:26;7.97;;;6.30;;
15216;SDS011;7711;46.634;14.318;2023-04-24T00:28:53;8.87;;;6.27;;
15216;SDS011;7711;46.634;14.318;2023-04-24T00:31:21;9.57;;;6.37;;
15216;SDS011;7711;46.634;14.318;2023-04-24T00:33:49;9.30;;;6.73;;
15216;SDS011;7711;46.634;14.318;2023-04-24T00:36:16;7.53;;;6.27;;
15216;SDS011;7711;46.634;14.318;2023-04-24T00:38:44;7.50;;;5.83;;
15216;SDS011;7711;46.634;14.318;2023-04-24T00:41:12;7.27;;;6.37;;
15216;SDS011;7711;46.634;14.318;2023-04-24T00:43:39;8.47;;;6.73;;
15216;SDS011;7711;46.634;14.318;2023-04-24T00:46:06;9.97;;;6.47;;
15216;SDS011;7711;46.634;14.318;2023-04-24T00:48:34;9.33;;;6.60;;
15216;SDS011;7711;46.634;14.318;2023-04-24T00:51:02;7.67;;;6.43;;
15216;SDS011;7711;46.634;14.318;2023-04-24T00:53:29;9.60;;;7.13;;
15216;SDS011;7711;46.634;14.318;2023-04-24T00:55:56;10.97;;;8.83;;
15216;SDS011;7711;46.634;14.318;2023-04-24T00:58:23;8.90;;;8.03;;
15216;SDS011;7711;46.634;14.318;2023-04-24T01:00:51;10.20;;;7.37;;
15216;SDS011;7711;46.634;14.318;2023-04-24T01:03:19;13.90;;;7.10;;
15216;SDS011;7711;46.634;14.318;2023-04-24T01:05:49;8.27;;;7.10;;
15216;SDS011;7711;46.634;14.318;2023-04-24T01:08:16;8.80;;;7.07;;
15216;SDS011;7711;46.634;14.318;2023-04-24T01:10:44;8.43;;;7.50;;
15216;SDS011;7711;46.634;14.318;2023-04-24T01:13:12;8.37;;;7.17;;
15216;SDS011;7711;46.634;14.318;2023-04-24T01:15:40;7.87;;;7.07;;
15216;SDS011;7711;46.634;14.318;2023-04-24T01:18:07;8.73;;;7.57;;
15216;SDS011;7711;46.634;14.318;2023-04-24T01:20:34;8.70;;;7.23;;
15216;SDS011;7711;46.634;14.318;2023-04-24T01:23:06;9.93;;;7.60;;
15216;SDS011;7711;46.634;14.318;2023-04-24T01:25:33;8.00;;;7.20;;
15216;SDS011;7711;46.634;14.318;2023-04-24T01:28:01;9.10;;;7.40;;
15216;SDS011;7711;46.634;14.318;2023-04-24T01:30:29;9.47;;;7.60;;
15216;SDS011;7711;46.634;14.318;2023-04-24T01:32:57;7.80;;;7.00;;
15216;SDS011;7711;46.634;14.318;2023-04-24T01:35:25;9.27;;;7.33;;
15216;SDS011;7711;46.634;14.318;2023-04-24T01:37:52;8.20;;;7.37;;
15216;SDS011;7711;46.634;14.318;2023-04-24T01:40:21;8.13;;;7.00;;
15216;SDS011;7711;46.634;14.318;2023-04-24T01:42:48;8.37;;;7.40;;
15216;SDS011;7711;46.634;14.318;2023-04-24T01:45:15;8.70;;;7.80;;
15216;SDS011;7711;46.634;14.318;2023-04-24T01:47:42;9.30;;;7.73;;
15216;SDS011;7711;46.634;14.318;2023-04-24T01:50:11;9.37;;;7.13;;
15216;SDS011;7711;46.634;14.318;2023-04-24T01:52:38;8.03;;;7.17;;
15216;SDS011;7711;46.634;14.318;2023-04-24T01:55:06;9.70;;;7.37;;
15216;SDS011;7711;46.634;14.318;2023-04-24T01:57:35;9.13;;;7.90;;
15216;SDS011;7711;46.634;14.318;2023-04-24T02:00:03;9.67;;;7.17;;
15216;SDS011;7711;46.634;14.318;2023-04-24T02:02:30;8.00;;;7.17;;
15216;SDS011;7711;46.634;14.318;2023-04-24T02:04:57;12.50;;;7.33;;
15216;SDS011;7711;46.634;14.318;2023-04-24T02:07:25;8.43;;;7.30;;
15216;SDS011;7711;46.634;14.318;2023-04-24T02:09:52;12.30;;;7.70;;
15216;SDS011;7711;46.634;14.318;2023-04-24T02:12:20;10.40;;;7.23;;
15216;SDS011;7711;46.634;14.318;2023-04-24T02:14:48;10.60;;;7.97;;
15216;SDS011;7711;46.634;14.318;2023-04-24T02:17:16;11.77;;;8.20;;
15216;SDS011;7711;46.634;14.318;2023-04-24T02:19:44;9.47;;;7.63;;
15216;SDS011;7711;46.634;14.318;2023-04-24T02:22:11;12.37;;;7.90;;
15216;SDS011;7711;46.634;14.318;2023-04-24T02:24:39;9.87;;;7.70;;
15216;SDS011;7711;46.634;14.318;2023-04-24T02:27:06;10.20;;;7.87;;
15216;SDS011;7711;46.634;14.318;2023-04-24T02:29:34;9.77;;;7.40;;
15216;SDS011;7711;46.634;14.318;2023-04-24T02:32:02;9.80;;;7.37;;
15216;SDS011;7711;46.634;14.318;2023-04-24T02:34:29;9.10;;;8.00;;
15216;SDS011;7711;46.634;14.318;2023-04-24T02:36:56;9.67;;;7.87;;
15216;SDS011;7711;46.634;14.318;2023-04-24T02:39:24;9.70;;;7.87;;
15216;SDS011;7711;46.634;14.318;2023-04-24T02:41:51;11.73;;;8.10;;
15216;SDS011;7711;46.634;14.318;2023-04-24T02:44:18;11.83;;;9.30;;
15216;SDS011;7711;46.634;14.318;2023-04-24T02:46:45;9.07;;;8.00;;
15216;SDS011;7711;46.634;14.318;2023-04-24T02:49:13;10.00;;;8.10;;
15216;SDS011;7711;46.634;14.318;2023-04-24T02:51:40;10.27;;;8.00;;
15216;SDS011;7711;46.634;14.318;2023-04-24T02:54:07;11.63;;;8.00;;
15216;SDS011;7711;46.634;14.318;2023-04-24T02:56:35;14.37;;;7.73;;
15216;SDS011;7711;46.634;14.318;2023-04-24T02:59:02;9.53;;;7.57;;
15216;SDS011;7711;46.634;14.318;2023-04-24T03:01:29;10.23;;;8.23;;
15216;SDS011;7711;46.634;14.318;2023-04-24T03:03:56;12.00;;;7.80;;
15216;SDS011;7711;46.634;14.318;2023-04-24T03:06:25;11.50;;;8.20;;
15216;SDS011;7711;46.634;14.318;2023-04-24T03:08:53;11.57;;;9.27;;
15216;SDS011;7711;46.634;14.318;2023-04-24T03:11:20;11.50;;;7.77;;
15216;SDS011;7711;46.634;14.318;2023-04-24T03:13:47;11.60;;;8.87;;
15216;SDS011;7711;46.634;14.318;2023-04-24T03:16:14;10.90;;;7.90;;
15216;SDS011;7711;46.634;14.318;2023-04-24T03:18:41;10.73;;;7.83;;
15216;SDS011;7711;46.634;14.318;2023-04-24T03:21:08;10.73;;;7.70;;
15216;SDS011;7711;46.634;14.318;2023-04-24T03:23:37;8.87;;;7.43;;
15216;SDS011;7711;46.634;14.318;2023-04-24T03:26:04;10.40;;;8.43;;
15216;SDS011;7711;46.634;14.318;2023-04-24T03:28:31;11.40;;;8.13;;
15216;SDS011;7711;46.634;14.318;2023-04-24T03:30:58;9.30;;;8.13;;
15216;SDS011;7711;46.634;14.318;2023-04-24T03:33:25;15.17;;;8.47;;
15216;SDS011;7711;46.634;14.318;2023-04-24T03:35:53;12.97;;;9.40;;
15216;SDS011;7711;46.634;14.318;2023-04-24T03:38:20;10.80;;;8.00;;
15216;SDS011;7711;46.634;14.318;2023-04-24T03:40:48;11.97;;;9.27;;
15216;SDS011;7711;46.634;14.318;2023-04-24T03:43:15;11.93;;;8.83;;
15216;SDS011;7711;46.634;14.318;2023-04-24T03:45:42;11.77;;;8.77;;
15216;SDS011;7711;46.634;14.318;2023-04-24T03:48:09;11.73;;;9.20;;
15216;SDS011;7711;46.634;14.318;2023-04-24T03:50:36;12.10;;;10.23;;
15216;SDS011;7711;46.634;14.318;2023-04-24T03:53:03;11.63;;;9.87;;
15216;SDS011;7711;46.634;14.318;2023-04-24T03:55:30;13.60;;;9.43;;
15216;SDS011;7711;46.634;14.318;2023-04-24T03:57:59;11.73;;;9.37;;
15216;SDS011;7711;46.634;14.318;2023-04-24T04:00:26;12.23;;;9.67;;
15216;SDS011;7711;46.634;14.318;2023-04-24T04:02:53;16.33;;;11.73;;
15216;SDS011;7711;46.634;14.318;2023-04-24T04:05:20;16.67;;;12.77;;
15216;SDS011;7711;46.634;14.318;2023-04-24T04:07:46;22.43;;;14.03;;
15216;SDS011;7711;46.634;14.318;2023-04-24T04:10:13;14.93;;;12.80;;
15216;SDS011;7711;46.634;14.318;2023-04-24T04:12:42;14.70;;;12.00;;
15216;SDS011;7711;46.634;14.318;2023-04-24T04:15:10;15.43;;;10.93;;
15216;SDS011;7711;46.634;14.318;2023-04-24T04:17:37;14.83;;;10.83;;
15216;SDS011;7711;46.634;14.318;2023-04-24T04:20:05;14.87;;;11.07;;
15216;SDS011;7711;46.634;14.318;2023-04-24T04:22:35;14.97;;;11.60;;
15216;SDS011;7711;46.634;14.318;2023-04-24T04:25:02;17.07;;;12.50;;
15216;SDS011;7711;46.634;14.318;2023-04-24T04:27:30;14.47;;;11.57;;
15216;SDS011;7711;46.634;14.318;2023-04-24T04:29:58;18.13;;;12.47;;
15216;SDS011;7711;46.634;14.318;2023-04-24T04:32:27;16.73;;;12.27;;
15216;SDS011;7711;46.634;14.318;2023-04-24T04:34:55;20.50;;;13.67;;
15216;SDS011;7711;46.634;14.318;2023-04-24T04:37:22;17.57;;;12.33;;
15216;SDS011;7711;46.634;14.318;2023-04-24T04:39:50;22.37;;;13.63;;
15216;SDS011;7711;46.634;14.318;2023-04-24T04:42:18;18.03;;;13.67;;
15216;SDS011;7711;46.634;14.318;2023-04-24T04:44:45;18.80;;;13.90;;
15216;SDS011;7711;46.634;14.318;2023-04-24T04:47:12;17.07;;;13.43;;
15216;SDS011;7711;46.634;14.318;2023-04-24T04:49:41;19.97;;;12.43;;
15216;SDS011;7711;46.634;14.318;2023-04-24T04:52:08;15.23;;;12.07;;
15216;SDS011;7711;46.634;14.318;2023-04-24T04:54:35;16.70;;;12.57;;
15216;SDS011;7711;46.634;14.318;2023-04-24T04:57:02;16.77;;;12.23;;
15216;SDS011;7711;46.634;14.318;2023-04-24T04:59:29;18.23;;;12.67;;
15216;SDS011;7711;46.634;14.318;2023-04-24T05:01:57;19.97;;;13.63;;
15216;SDS011;7711;46.634;14.318;2023-04-24T05:04:24;19.07;;;13.53;;
15216;SDS011;7711;46.634;14.318;2023-04-24T05:06:52;16.40;;;12.43;;
15216;SDS011;7711;46.634;14.318;2023-04-24T05:09:19;19.43;;;13.80;;
15216;SDS011;7711;46.634;14.318;2023-04-24T05:11:46;19.60;;;13.47;;
15216;SDS011;7711;46.634;14.318;2023-04-24T05:14:13;19.93;;;13.23;;
15216;SDS011;7711;46.634;14.318;2023-04-24T05:16:42;28.90;;;12.80;;
15216;SDS011;7711;46.634;14.318;2023-04-24T05:19:10;21.20;;;12.80;;
15216;SDS011;7711;46.634;14.318;2023-04-24T05:21:39;15.20;;;11.97;;
15216;SDS011;7711;46.634;14.318;2023-04-24T05:24:07;18.60;;;11.93;;
15216;SDS011;7711;46.634;14.318;2023-04-24T05:26:34;17.87;;;12.40;;
15216;SDS011;7711;46.634;14.318;2023-04-24T05:29:01;18.83;;;11.47;;
15216;SDS011;7711;46.634;14.318;2023-04-24T05:31:29;15.27;;;11.20;;
15216;SDS011;7711;46.634;14.318;2023-04-24T05:33:56;14.17;;;10.33;;
15216;SDS011;7711;46.634;14.318;2023-04-24T05:36:23;15.93;;;11.67;;
15216;SDS011;7711;46.634;14.318;2023-04-24T05:38:50;15.50;;;10.97;;
15216;SDS011;7711;46.634;14.318;2023-04-24T05:41:18;17.73;;;11.27;;
15216;SDS011;7711;46.634;14.318;2023-04-24T05:43:46;12.87;;;10.13;;
15216;SDS011;7711;46.634;14.318;2023-04-24T05:46:13;16.47;;;10.10;;
15216;SDS011;7711;46.634;14.318;2023-04-24T05:48:40;13.67;;;10.47;;
15216;SDS011;7711;46.634;14.318;2023-04-24T05:51:09;14.50;;;10.03;;
15216;SDS011;7711;46.634;14.318;2023-04-24T05:53:36;18.37;;;11.90;;
15216;SDS011;7711;46.634;14.318;2023-04-24T05:56:03;37.83;;;20.40;;
15216;SDS011;7711;46.634;14.318;2023-04-24T05:58:32;16.40;;;12.00;;
15216;SDS011;7711;46.634;14.318;2023-04-24T06:00:59;17.43;;;12.13;;
15216;SDS011;7711;46.634;14.318;2023-04-24T06:03:26;18.37;;;11.63;;
15216;SDS011;7711;46.634;14.318;2023-04-24T06:05:53;18.80;;;12.47;;
15216;SDS011;7711;46.634;14.318;2023-04-24T06:08:21;16.00;;;12.17;;
15216;SDS011;7711;46.634;14.318;2023-04-24T06:10:48;17.97;;;11.77;;
15216;SDS011;7711;46.634;14.318;2023-04-24T06:13:15;16.30;;;12.23;;
15216;SDS011;7711;46.634;14.318;2023-04-24T06:15:43;43.37;;;14.40;;
15216;SDS011;7711;46.634;14.318;2023-04-24T06:18:10;21.30;;;12.57;;
15216;SDS011;7711;46.634;14.318;2023-04-24T06:20:38;16.53;;;12.13;;
15216;SDS011;7711;46.634;14.318;2023-04-24T06:23:05;36.40;;;15.53;;
15216;SDS011;7711;46.634;14.318;2023-04-24T06:25:32;64.43;;;17.20;;
15216;SDS011;7711;46.634;14.318;2023-04-24T06:28:00;21.50;;;10.83;;
15216;SDS011;7711;46.634;14.318;2023-04-24T06:30:27;18.47;;;9.80;;
15216;SDS011;7711;46.634;14.318;2023-04-24T06:32:56;16.40;;;9.67;;
15216;SDS011;7711;46.634;14.318;2023-04-24T06:35:23;11.57;;;9.47;;
15216;SDS011;7711;46.634;14.318;2023-04-24T06:37:50;19.80;;;10.13;;
15216;SDS011;7711;46.634;14.318;2023-04-24T06:40:17;15.20;;;11.07;;
15216;SDS011;7711;46.634;14.318;2023-04-24T06:42:44;25.97;;;10.80;;
15216;SDS011;7711;46.634;14.318;2023-04-24T06:45:11;16.40;;;10.37;;
15216;SDS011;7711;46.634;14.318;2023-04-24T06:47:38;16.20;;;10.60;;
15216;SDS011;7711;46.634;14.318;2023-04-24T06:50:07;15.33;;;9.83;;
15216;SDS011;7711;46.634;14.318;2023-04-24T06:52:35;16.97;;;9.87;;
15216;SDS011;7711;46.634;14.318;2023-04-24T06:55:02;14.70;;;10.63;;
15216;SDS011;7711;46.634;14.318;2023-04-24T06:57:29;14.97;;;11.13;;
15216;SDS011;7711;46.634;14.318;2023-04-24T06:59:57;17.00;;;10.40;;
15216;SDS011;7711;46.634;14.318;2023-04-24T07:02:24;14.37;;;10.77;;
15216;SDS011;7711;46.634;14.318;2023-04-24T07:04:51;13.73;;;10.90;;
15216;SDS011;7711;46.634;14.318;2023-04-24T07:07:19;14.30;;;10.87;;
15216;SDS011;7711;46.634;14.318;2023-04-24T07:09:46;17.17;;;11.27;;
15216;SDS011;7711;46.634;14.318;2023-04-24T07:12:13;16.40;;;10.60;;
15216;SDS011;7711;46.634;14.318;2023-04-24T07:14:42;18.30;;;10.57;;
15216;SDS011;7711;46.634;14.318;2023-04-24T07:17:09;12.63;;;10.73;;
15216;SDS011;7711;46.634;14.318;2023-04-24T07:19:38;18.37;;;11.40;;
15216;SDS011;7711;46.634;14.318;2023-04-24T07:22:05;16.67;;;12.30;;
15216;SDS011;7711;46.634;14.318;2023-04-24T07:24:33;15.57;;;12.03;;
15216;SDS011;7711;46.634;14.318;2023-04-24T07:27:00;16.97;;;11.50;;
15216;SDS011;7711;46.634;14.318;2023-04-24T07:29:28;13.53;;;11.53;;
15216;SDS011;7711;46.634;14.318;2023-04-24T07:31:55;19.57;;;12.73;;
15216;SDS011;7711;46.634;14.318;2023-04-24T07:34:22;20.60;;;15.27;;
15216;SDS011;7711;46.634;14.318;2023-04-24T07:36:49;17.60;;;12.77;;
15216;SDS011;7711;46.634;14.318;2023-04-24T07:39:17;18.93;;;12.50;;
15216;SDS011;7711;46.634;14.318;2023-04-24T07:41:45;23.33;;;12.93;;
15216;SDS011;7711;46.634;14.318;2023-04-24T07:44:13;23.53;;;12.50;;
15216;SDS011;7711;46.634;14.318;2023-04-24T07:46:40;29.67;;;13.97;;
15216;SDS011;7711;46.634;14.318;2023-04-24T07:49:07;18.30;;;11.37;;
15216;SDS011;7711;46.634;14.318;2023-04-24T07:51:34;19.73;;;11.70;;
15216;SDS011;7711;46.634;14.318;2023-04-24T07:54:03;18.73;;;11.77;;
15216;SDS011;7711;46.634;14.318;2023-04-24T07:56:31;18.77;;;11.20;;
15216;SDS011;7711;46.634;14.318;2023-04-24T07:59:00;16.03;;;10.27;;
15216;SDS011;7711;46.634;14.318;2023-04-24T08:01:27;15.30;;;11.00;;
15216;SDS011;7711;46.634;14.318;2023-04-24T08:03:54;13.37;;;10.60;;
15216;SDS011;7711;46.634;14.318;2023-04-24T08:06:21;15.83;;;10.93;;
15216;SDS011;7711;46.634;14.318;2023-04-24T08:08:49;16.97;;;11.17;;
15216;SDS011;7711;46.634;14.318;2023-04-24T08:11:16;13.57;;;9.20;;
15216;SDS011;7711;46.634;14.318;2023-04-24T08:13:43;10.90;;;9.67;;
15216;SDS011;7711;46.634;14.318;2023-04-24T08:16:12;11.57;;;9.83;;
15216;SDS011;7711;46.634;14.318;2023-04-24T08:18:39;12.23;;;9.13;;
15216;SDS011;7711;46.634;14.318;2023-04-24T08:21:06;11.77;;;9.70;;
15216;SDS011;7711;46.634;14.318;2023-04-24T08:23:33;12.83;;;10.77;;
15216;SDS011;7711;46.634;14.318;2023-04-24T08:26:01;16.10;;;10.83;;
15216;SDS011;7711;46.634;14.318;2023-04-24T08:28:28;13.40;;;10.60;;
15216;SDS011;7711;46.634;14.318;2023-04-24T08:30:55;13.63;;;10.73;;
15216;SDS011;7711;46.634;14.318;2023-04-24T08:33:23;14.60;;;11.20;;
15216;SDS011;7711;46.634;14.318;2023-04-24T08:35:51;13.73;;;11.13;;
15216;SDS011;7711;46.634;14.318;2023-04-24T08:38:18;14.67;;;11.23;;
15216;SDS011;7711;46.634;14.318;2023-04-24T08:40:46;15.27;;;11.03;;
15216;SDS011;7711;46.634;14.318;2023-04-24T08:43:14;13.70;;;11.03;;
15216;SDS011;7711;46.634;14.318;2023-04-24T08:45:42;14.90;;;11.40;;
15216;SDS011;7711;46.634;14.318;2023-04-24T08:48:09;16.10;;;10.53;;
15216;SDS011;7711;46.634;14.318;2023-04-24T08:50:39;12.20;;;10.20;;
15216;SDS011;7711;46.634;14.318;2023-04-24T08:53:08;11.67;;;10.07;;
15216;SDS011;7711;46.634;14.318;2023-04-24T08:55:35;12.90;;;10.87;;
15216;SDS011;7711;46.634;14.318;2023-04-24T08:58:03;14.83;;;10.13;;
15216;SDS011;7711;46.634;14.318;2023-04-24T09:00:31;10.10;;;8.13;;
15216;SDS011;7711;46.634;14.318;2023-04-24T09:03:00;10.47;;;7.80;;
15216;SDS011;7711;46.634;14.318;2023-04-24T09:05:28;10.00;;;6.73;;
15216;SDS011;7711;46.634;14.318;2023-04-24T09:07:57;5.57;;;4.75;;
15216;SDS011;7711;46.634;14.318;2023-04-24T09:10:28;5.57;;;5.03;;
15216;SDS011;7711;46.634;14.318;2023-04-24T09:12:55;6.80;;;5.70;;
15216;SDS011;7711;46.634;14.318;2023-04-24T09:15:27;5.73;;;5.10;;
15216;SDS011;7711;46.634;14.318;2023-04-24T09:17:55;9.33;;;7.17;;
15216;SDS011;7711;46.634;14.318;2023-04-24T09:20:22;12.33;;;8.40;;
15216;SDS011;7711;46.634;14.318;2023-04-24T09:22:52;9.63;;;8.15;;
15216;SDS011;7711;46.634;14.318;2023-04-24T09:25:22;14.63;;;11.33;;
15216;SDS011;7711;46.634;14.318;2023-04-24T09:27:53;10.57;;;9.43;;
15216;SDS011;7711;46.634;14.318;2023-04-24T09:30:20;22.90;;;16.63;;
15216;SDS011;7711;46.634;14.318;2023-04-24T09:32:48;24.07;;;17.73;;
15216;SDS011;7711;46.634;14.318;2023-04-24T09:35:16;21.67;;;15.20;;
15216;SDS011;7711;46.634;14.318;2023-04-24T09:37:43;15.93;;;11.97;;
15216;SDS011;7711;46.634;14.318;2023-04-24T09:40:15;13.70;;;10.87;;
15216;SDS011;7711;46.634;14.318;2023-04-24T09:42:45;14.43;;;10.93;;
15216;SDS011;7711;46.634;14.318;2023-04-24T09:45:17;17.43;;;12.60;;
15216;SDS011;7711;46.634;14.318;2023-04-24T09:47:44;16.67;;;11.10;;
15216;SDS011;7711;46.634;14.318;2023-04-24T09:50:12;13.40;;;10.80;;
15216;SDS011;7711;46.634;14.318;2023-04-24T09:52:41;14.37;;;11.70;;
15216;SDS011;7711;46.634;14.318;2023-04-24T09:55:19;16.60;;;11.43;;
15216;SDS011;7711;46.634;14.318;2023-04-24T09:57:48;11.47;;;10.27;;
15216;SDS011;7711;46.634;14.318;2023-04-24T10:00:21;14.70;;;10.40;;
15216;SDS011;7711;46.634;14.318;2023-04-24T10:02:50;13.50;;;10.93;;
15216;SDS011;7711;46.634;14.318;2023-04-24T10:05:22;14.23;;;10.77;;
15216;SDS011;7711;46.634;14.318;2023-04-24T10:07:51;13.68;;;11.20;;
15216;SDS011;7711;46.634;14.318;2023-04-24T10:10:22;12.73;;;8.97;;
15216;SDS011;7711;46.634;14.318;2023-04-24T10:12:50;9.17;;;7.63;;
15216;SDS011;7711;46.634;14.318;2023-04-24T10:15:18;7.00;;;6.37;;
15216;SDS011;7711;46.634;14.318;2023-04-24T10:17:46;7.80;;;5.45;;
15216;SDS011;7711;46.634;14.318;2023-04-24T10:20:17;5.70;;;5.13;;
15216;SDS011;7711;46.634;14.318;2023-04-24T10:22:48;4.37;;;3.97;;
15216;SDS011;7711;46.634;14.318;2023-04-24T10:25:17;3.47;;;2.90;;
15216;SDS011;7711;46.634;14.318;2023-04-24T10:27:46;3.80;;;3.40;;
15216;SDS011;7711;46.634;14.318;2023-04-24T10:30:15;3.70;;;2.77;;
15216;SDS011;7711;46.634;14.318;2023-04-24T10:32:43;3.90;;;3.03;;
15216;SDS011;7711;46.634;14.318;2023-04-24T10:35:10;3.80;;;2.50;;
15216;SDS011;7711;46.634;14.318;2023-04-24T10:37:40;5.53;;;2.30;;
15216;SDS011;7711;46.634;14.318;2023-04-24T10:40:11;2.42;;;1.98;;
15216;SDS011;7711;46.634;14.318;2023-04-24T10:42:42;2.47;;;2.27;;
15216;SDS011;7711;46.634;14.318;2023-04-24T10:45:17;2.60;;;2.20;;
15216;SDS011;7711;46.634;14.318;2023-04-24T10:47:53;2.15;;;1.95;;
15216;SDS011;7711;46.634;14.318;2023-04-24T10:50:25;2.00;;;1.90;;
15216;SDS011;7711;46.634;14.318;2023-04-24T10:52:53;2.20;;;2.00;;
15216;SDS011;7711;46.634;14.318;2023-04-24T10:55:41;2.10;;;1.90;;
15216;SDS011;7711;46.634;14.318;2023-04-24T10:58:09;2.20;;;2.00;;
15216;SDS011;7711;46.634;14.318;2023-04-24T11:00:38;2.58;;;2.38;;
15216;SDS011;7711;46.634;14.318;2023-04-24T11:03:06;2.38;;;2.10;;
15216;SDS011;7711;46.634;14.318;2023-04-24T11:08:38;2.33;;;2.00;;
15216;SDS011;7711;46.634;14.318;2023-04-24T11:11:09;1.80;;;1.70;;
15216;SDS011;7711;46.634;14.318;2023-04-24T11:19:22;1.88;;;1.77;;
15216;SDS011;7711;46.634;14.318;2023-04-24T11:21:54;1.95;;;1.80;;
15216;SDS011;7711;46.634;14.318;2023-04-24T11:24:25;2.15;;;1.80;;
15216;SDS011;7711;46.634;14.318;2023-04-24T11:26:54;4.03;;;2.10;;
15216;SDS011;7711;46.634;14.318;2023-04-24T11:29:22;3.22;;;2.22;;
15216;SDS011;7711;46.634;14.318;2023-04-24T11:32:15;2.28;;;2.08;;
15216;SDS011;7711;46.634;14.318;2023-04-24T11:34:45;2.45;;;2.25;;
15216;SDS011;7711;46.634;14.318;2023-04-24T11:37:13;2.03;;;1.92;;
15216;SDS011;7711;46.634;14.318;2023-04-24T11:39:40;3.10;;;1.70;;
15216;SDS011;7711;46.634;14.318;2023-04-24T11:42:07;15.35;;;2.92;;
15216;SDS011;7711;46.634;14.318;2023-04-24T11:44:35;3.70;;;1.90;;
15216;SDS011;7711;46.634;14.318;2023-04-24T11:47:02;1.90;;;1.80;;
15216;SDS011;7711;46.634;14.318;2023-04-24T11:49:31;22.52;;;5.25;;
15216;SDS011;7711;46.634;14.318;2023-04-24T11:51:57;2.83;;;1.90;;
15216;SDS011;7711;46.634;14.318;2023-04-24T11:54:26;1.98;;;1.55;;
15216;SDS011;7711;46.634;14.318;2023-04-24T11:56:53;3.08;;;1.90;;
15216;SDS011;7711;46.634;14.318;2023-04-24T11:59:22;2.05;;;1.85;;
15216;SDS011;7711;46.634;14.318;2023-04-24T12:01:49;2.97;;;2.30;;
15216;SDS011;7711;46.634;14.318;2023-04-24T12:04:17;1.80;;;1.67;;
15216;SDS011;7711;46.634;14.318;2023-04-24T12:07:01;2.05;;;1.50;;
15216;SDS011;7711;46.634;14.318;2023-04-24T12:09:39;4.13;;;1.77;;
15216;SDS011;7711;46.634;14.318;2023-04-24T12:12:08;2.85;;;1.55;;
15216;SDS011;7711;46.634;14.318;2023-04-24T12:14:41;2.17;;;1.83;;
15216;SDS011;7711;46.634;14.318;2023-04-24T12:17:09;1.75;;;1.60;;
15216;SDS011;7711;46.634;14.318;2023-04-24T12:19:36;1.80;;;1.70;;
15216;SDS011;7711;46.634;14.318;2023-04-24T12:22:05;1.83;;;1.70;;
15216;SDS011;7711;46.634;14.318;2023-04-24T12:24:33;2.63;;;1.70;;
15216;SDS011;7711;46.634;14.318;2023-04-24T12:26:59;2.00;;;1.83;;
15216;SDS011;7711;46.634;14.318;2023-04-24T12:29:27;2.15;;;1.75;;
15216;SDS011;7711;46.634;14.318;2023-04-24T12:31:54;3.72;;;2.10;;
15216;SDS011;7711;46.634;14.318;2023-04-24T12:34:22;2.45;;;1.65;;
15216;SDS011;7711;46.634;14.318;2023-04-24T12:36:50;4.55;;;2.05;;
15216;SDS011;7711;46.634;14.318;2023-04-24T12:39:18;3.33;;;1.85;;
15216;SDS011;7711;46.634;14.318;2023-04-24T12:41:54;2.33;;;1.70;;
15216;SDS011;7711;46.634;14.318;2023-04-24T12:44:29;2.25;;;1.60;;
15216;SDS011;7711;46.634;14.318;2023-04-24T12:46:57;2.85;;;1.55;;
15216;SDS011;7711;46.634;14.318;2023-04-24T12:49:24;4.13;;;1.60;;
15216;SDS011;7711;46.634;14.318;2023-04-24T12:51:51;1.90;;;1.70;;
15216;SDS011;7711;46.634;14.318;2023-04-24T12:54:19;2.22;;;2.03;;
15216;SDS011;7711;46.634;14.318;2023-04-24T12:56:46;2.10;;;1.90;;
15216;SDS011;7711;46.634;14.318;2023-04-24T12:59:13;1.95;;;1.70;;
15216;SDS011;7711;46.634;14.318;2023-04-24T13:01:40;1.60;;;1.50;;
15216;SDS011;7711;46.634;14.318;2023-04-24T13:04:07;1.88;;;1.50;;
15216;SDS011;7711;46.634;14.318;2023-04-24T13:06:35;2.83;;;2.10;;
15216;SDS011;7711;46.634;14.318;2023-04-24T13:09:02;1.50;;;1.40;;
15216;SDS011;7711;46.634;14.318;2023-04-24T13:11:30;2.10;;;1.90;;
15216;SDS011;7711;46.634;14.318;2023-04-24T13:13:58;1.70;;;1.60;;
15216;SDS011;7711;46.634;14.318;2023-04-24T13:16:25;2.00;;;1.80;;
15216;SDS011;7711;46.634;14.318;2023-04-24T13:18:52;1.88;;;1.48;;
15216;SDS011;7711;46.634;14.318;2023-04-24T13:21:19;1.80;;;1.50;;
15216;SDS011;7711;46.634;14.318;2023-04-24T13:23:46;1.90;;;1.50;;
15216;SDS011;7711;46.634;14.318;2023-04-24T13:26:13;2.77;;;1.40;;
15216;SDS011;7711;46.634;14.318;2023-04-24T13:28:42;2.33;;;1.55;;
15216;SDS011;7711;46.634;14.318;2023-04-24T13:31:09;5.50;;;1.70;;
15216;SDS011;7711;46.634;14.318;2023-04-24T13:33:36;1.97;;;1.80;;
15216;SDS011;7711;46.634;14.318;2023-04-24T13:36:03;2.40;;;1.40;;
15216;SDS011;7711;46.634;14.318;2023-04-24T13:38:30;1.80;;;1.70;;
15216;SDS011;7711;46.634;14.318;2023-04-24T13:40:57;1.65;;;1.55;;
15216;SDS011;7711;46.634;14.318;2023-04-24T13:43:24;2.03;;;1.70;;
15216;SDS011;7711;46.634;14.318;2023-04-24T13:45:53;1.50;;;1.40;;
15216;SDS011;7711;46.634;14.318;2023-04-24T13:48:20;3.40;;;1.73;;
15216;SDS011;7711;46.634;14.318;2023-04-24T13:50:47;1.93;;;1.63;;
15216;SDS011;7711;46.634;14.318;2023-04-24T13:53:14;2.37;;;1.80;;
15216;SDS011;7711;46.634;14.318;2023-04-24T13:55:41;2.20;;;2.00;;
15216;SDS011;7711;46.634;14.318;2023-04-24T13:58:09;2.50;;;2.07;;
15216;SDS011;7711;46.634;14.318;2023-04-24T14:00:36;3.10;;;1.80;;
15216;SDS011;7711;46.634;14.318;2023-04-24T14:03:04;2.37;;;1.83;;
15216;SDS011;7711;46.634;14.318;2023-04-24T14:05:31;2.10;;;1.80;;
15216;SDS011;7711;46.634;14.318;2023-04-24T14:07:59;2.80;;;1.80;;
15216;SDS011;7711;46.634;14.318;2023-04-24T14:10:26;8.27;;;2.10;;
15216;SDS011;7711;46.634;14.318;2023-04-24T14:12:53;3.30;;;2.03;;
15216;SDS011;7711;46.634;14.318;2023-04-24T14:15:20;2.57;;;1.70;;
15216;SDS011;7711;46.634;14.318;2023-04-24T14:17:47;2.10;;;1.77;;
15216;SDS011;7711;46.634;14.318;2023-04-24T14:20:16;2.43;;;1.80;;
15216;SDS011;7711;46.634;14.318;2023-04-24T14:22:43;2.20;;;1.80;;
15216;SDS011;7711;46.634;14.318;2023-04-24T14:25:10;2.10;;;1.90;;
15216;SDS011;7711;46.634;14.318;2023-04-24T14:27:37;3.83;;;2.10;;
15216;SDS011;7711;46.634;14.318;2023-04-24T14:30:05;3.30;;;2.10;;
15216;SDS011;7711;46.634;14.318;2023-04-24T14:32:33;1.97;;;1.60;;
15216;SDS011;7711;46.634;14.318;2023-04-24T14:35:01;2.53;;;1.90;;
15216;SDS011;7711;46.634;14.318;2023-04-24T14:37:29;2.13;;;1.60;;
15216;SDS011;7711;46.634;14.318;2023-04-24T14:39:56;7.87;;;1.90;;
15216;SDS011;7711;46.634;14.318;2023-04-24T14:42:24;3.20;;;1.90;;
15216;SDS011;7711;46.634;14.318;2023-04-24T14:44:51;3.57;;;2.03;;
15216;SDS011;7711;46.634;14.318;2023-04-24T14:47:18;3.93;;;1.97;;
15216;SDS011;7711;46.634;14.318;2023-04-24T14:49:46;2.40;;;1.70;;